createdAt,value
2022-08-12T00:02:05.696Z,6.20
2022-08-12T00:04:56.646Z,6.60
2022-08-12T00:07:46.489Z,5.10
2022-08-12T00:10:35.823Z,5.70
2022-08-12T00:13:26.151Z,5.50
2022-08-12T00:16:16.094Z,5.30
2022-08-12T00:19:06.553Z,5.20
2022-08-12T00:21:57.078Z,5.30
2022-08-12T00:24:47.240Z,5.90
2022-08-12T00:27:44.129Z,5.70
2022-08-12T00:30:34.369Z,5.00
2022-08-12T00:33:27.538Z,5.20
2022-08-12T00:36:32.413Z,4.60
2022-08-12T00:39:25.650Z,5.10
2022-08-12T00:42:12.602Z,4.70
2022-08-12T00:44:48.280Z,4.40
2022-08-12T00:47:24.079Z,4.30
2022-08-12T00:49:58.339Z,4.60
2022-08-12T00:52:30.121Z,3.70
2022-08-12T00:55:05.624Z,4.80
2022-08-12T00:57:38.341Z,4.90
2022-08-12T01:02:46.702Z,3.90
2022-08-12T01:05:38.882Z,4.00
2022-08-12T01:08:29.326Z,4.00
2022-08-12T01:11:19.374Z,4.20
2022-08-12T01:13:52.218Z,4.40
2022-08-12T01:16:24.188Z,4.50
2022-08-12T01:18:58.335Z,4.10
2022-08-12T01:21:51.733Z,4.40
2022-08-12T01:24:52.183Z,4.90
2022-08-12T01:27:25.714Z,4.10
2022-08-12T01:30:01.095Z,4.00
2022-08-12T01:32:37.803Z,3.60
2022-08-12T01:35:11.642Z,3.70
2022-08-12T01:37:49.814Z,4.20
2022-08-12T01:40:35.012Z,3.90
2022-08-12T01:43:11.184Z,4.20
2022-08-12T01:45:54.560Z,4.80
2022-08-12T01:48:50.601Z,4.10
2022-08-12T01:52:15.179Z,3.70
2022-08-12T01:54:38.637Z,4.10
2022-08-12T01:57:58.732Z,4.10
2022-08-12T02:00:15.075Z,4.90
2022-08-12T02:02:54.901Z,4.10
2022-08-12T02:06:00.146Z,4.60
2022-08-12T02:09:01.586Z,4.50
2022-08-12T02:11:37.490Z,4.30
2022-08-12T02:14:31.643Z,4.20
2022-08-12T02:17:55.093Z,5.10
2022-08-12T02:20:35.106Z,4.50
2022-08-12T02:23:28.161Z,4.10
2022-08-12T02:26:05.828Z,4.20
2022-08-12T02:28:39.573Z,4.10
2022-08-12T02:31:15.064Z,4.10
2022-08-12T02:33:47.837Z,4.50
2022-08-12T02:38:54.913Z,3.90
2022-08-12T02:41:31.057Z,3.90
2022-08-12T02:44:10.321Z,4.10
2022-08-12T02:46:44.875Z,4.50
2022-08-12T02:49:23.705Z,4.10
2022-08-12T02:51:56.257Z,3.90
2022-08-12T02:54:28.542Z,4.70
2022-08-12T02:57:01.710Z,4.40
2022-08-12T02:59:35.581Z,4.30
2022-08-12T03:02:12.082Z,3.70
2022-08-12T03:04:52.053Z,3.90
2022-08-12T03:07:56.355Z,5.60
2022-08-12T03:10:36.932Z,4.10
2022-08-12T03:13:11.009Z,4.20
2022-08-12T03:15:43.584Z,4.50
2022-08-12T03:18:27.161Z,4.20
2022-08-12T03:21:03.021Z,4.20
2022-08-12T03:23:35.229Z,4.50
2022-08-12T03:26:08.318Z,5.40
2022-08-12T03:28:54.212Z,4.90
2022-08-12T03:31:29.032Z,4.30
2022-08-12T03:34:03.674Z,5.90
2022-08-12T03:36:37.559Z,5.20
2022-08-12T03:39:36.174Z,4.50
2022-08-12T03:42:23.426Z,4.60
2022-08-12T03:45:42.058Z,4.50
2022-08-12T03:48:41.958Z,4.70
2022-08-12T03:51:31.685Z,4.20
2022-08-12T03:54:20.987Z,3.70
2022-08-12T03:57:10.448Z,4.70
2022-08-12T04:00:00.383Z,4.70
2022-08-12T04:02:34.647Z,4.60
2022-08-12T04:05:08.869Z,4.70
2022-08-12T04:07:58.131Z,5.80
2022-08-12T04:10:53.735Z,6.10
2022-08-12T04:13:25.532Z,5.80
2022-08-12T04:15:58.646Z,5.80
2022-08-12T04:18:32.878Z,5.20
2022-08-12T04:21:10.325Z,4.20
2022-08-12T04:23:48.375Z,4.50
2022-08-12T04:26:20.487Z,4.70
2022-08-12T04:28:52.325Z,4.20
2022-08-12T04:31:33.057Z,5.20
2022-08-12T04:34:07.242Z,5.00
2022-08-12T04:36:40.788Z,4.60
2022-08-12T04:39:13.778Z,5.00
2022-08-12T04:41:58.131Z,5.30
2022-08-12T04:44:32.433Z,5.80
2022-08-12T04:47:04.341Z,5.80
2022-08-12T04:49:38.280Z,5.20
2022-08-12T04:52:10.300Z,5.50
2022-08-12T04:54:43.956Z,6.00
2022-08-12T04:57:16.005Z,4.20
2022-08-12T04:59:49.027Z,5.40
2022-08-12T05:02:23.014Z,5.70
2022-08-12T05:05:01.148Z,5.30
2022-08-12T05:07:34.107Z,5.70
2022-08-12T05:10:17.981Z,5.50
2022-08-12T05:12:53.821Z,5.50
2022-08-12T05:15:29.363Z,5.50
2022-08-12T05:18:02.153Z,6.50
2022-08-12T05:20:49.291Z,5.80
2022-08-12T05:23:23.190Z,6.10
2022-08-12T05:25:57.229Z,7.00
2022-08-12T05:28:30.538Z,6.30
2022-08-12T05:31:02.455Z,6.90
2022-08-12T05:33:37.467Z,6.10
2022-08-12T05:36:12.596Z,6.30
2022-08-12T05:38:57.198Z,6.90
2022-08-12T05:41:32.503Z,6.30
2022-08-12T05:44:06.658Z,7.30
2022-08-12T05:46:41.085Z,6.90
2022-08-12T05:49:12.824Z,6.80
2022-08-12T05:51:44.743Z,6.80
2022-08-12T05:54:16.563Z,6.80
2022-08-12T05:56:48.527Z,6.60
2022-08-12T05:59:21.705Z,7.20
2022-08-12T06:02:12.215Z,6.60
2022-08-12T06:04:45.278Z,6.60
2022-08-12T06:07:59.710Z,6.90
2022-08-12T06:10:10.118Z,6.50
2022-08-12T06:12:42.411Z,6.30
2022-08-12T06:15:14.764Z,6.30
2022-08-12T06:17:47.245Z,6.40
2022-08-12T06:20:28.645Z,6.30
2022-08-12T06:23:02.595Z,6.30
2022-08-12T06:25:34.849Z,6.80
2022-08-12T06:28:17.482Z,6.10
2022-08-12T06:33:59.557Z,7.20
2022-08-12T06:36:36.053Z,6.20
2022-08-12T06:39:14.896Z,6.50
2022-08-12T06:42:42.197Z,6.50
2022-08-12T06:44:56.410Z,5.90
2022-08-12T06:47:28.127Z,6.40
2022-08-12T06:49:59.816Z,6.00
2022-08-12T06:52:32.328Z,6.20
2022-08-12T06:57:57.297Z,6.20
2022-08-12T07:00:32.548Z,5.90
2022-08-12T07:03:16.613Z,5.90
2022-08-12T07:05:55.929Z,5.50
2022-08-12T07:08:30.036Z,5.10
2022-08-12T07:11:03.898Z,6.50
2022-08-12T07:14:12.410Z,6.40
2022-08-12T07:16:52.202Z,4.80
2022-08-12T07:19:25.129Z,5.10
2022-08-12T07:22:13.916Z,5.40
2022-08-12T07:25:05.650Z,5.50
2022-08-12T07:27:42.707Z,5.00
2022-08-12T07:30:15.552Z,4.80
2022-08-12T07:35:20.369Z,5.20
2022-08-12T07:37:53.249Z,5.50
2022-08-12T07:40:26.406Z,5.50
2022-08-12T07:42:58.607Z,4.90
2022-08-12T07:45:30.474Z,4.70
2022-08-12T07:48:02.376Z,5.40
2022-08-12T07:50:34.152Z,4.10
2022-08-12T07:53:06.098Z,4.10
2022-08-12T07:55:37.931Z,3.60
2022-08-12T07:58:10.145Z,3.50
2022-08-12T08:00:42.110Z,3.50
2022-08-12T08:03:17.092Z,3.90
2022-08-12T08:05:49.675Z,3.70
2022-08-12T08:11:16.804Z,3.30
2022-08-12T08:13:49.294Z,3.50
2022-08-12T08:16:21.050Z,6.60
2022-08-12T08:18:53.324Z,3.30
2022-08-12T08:21:27.225Z,3.20
2022-08-12T08:24:17.449Z,3.40
2022-08-12T08:26:50.908Z,4.40
2022-08-12T08:29:23.920Z,3.40
2022-08-12T08:32:00.133Z,3.20
2022-08-12T08:37:27.731Z,2.90
2022-08-12T08:40:21.252Z,3.50
2022-08-12T08:42:52.953Z,2.70
2022-08-12T08:45:25.054Z,2.90
2022-08-12T08:48:00.277Z,3.10
2022-08-12T08:50:33.362Z,3.20
2022-08-12T08:53:08.746Z,3.70
2022-08-12T08:56:03.613Z,3.10
2022-08-12T08:58:34.378Z,3.50
2022-08-12T09:01:06.543Z,3.50
2022-08-12T09:09:21.972Z,3.30
2022-08-12T09:15:16.811Z,4.00
2022-08-12T09:17:57.147Z,3.20
2022-08-12T09:20:33.677Z,3.50
2022-08-12T09:23:07.994Z,3.20
2022-08-12T09:26:03.990Z,3.40
2022-08-12T09:28:37.853Z,3.70
2022-08-12T09:32:04.064Z,3.50
2022-08-12T09:34:26.693Z,4.50
2022-08-12T09:37:00.676Z,3.90
2022-08-12T09:40:06.444Z,3.40
2022-08-12T09:42:57.704Z,3.40
2022-08-12T09:46:06.500Z,3.50
2022-08-12T09:51:16.708Z,3.50
2022-08-12T09:54:06.837Z,3.10
2022-08-12T09:57:03.210Z,3.60
2022-08-12T10:00:16.001Z,3.20
2022-08-12T10:02:44.405Z,3.50
2022-08-12T10:05:22.731Z,4.10
2022-08-12T10:08:17.457Z,4.10
2022-08-12T10:11:08.353Z,3.50
2022-08-12T10:13:52.783Z,3.90
2022-08-12T10:16:28.387Z,3.60
2022-08-12T10:19:01.942Z,3.70
2022-08-12T10:21:37.638Z,3.30
2022-08-12T10:24:11.778Z,3.90
2022-08-12T10:27:05.871Z,3.40
2022-08-12T10:30:38.783Z,3.50
2022-08-12T10:32:43.673Z,3.20
2022-08-12T10:35:18.915Z,3.80
2022-08-12T10:38:39.284Z,3.60
2022-08-12T10:40:56.271Z,3.80
2022-08-12T10:43:55.820Z,3.40
2022-08-12T10:46:30.993Z,3.50
2022-08-12T10:49:06.574Z,4.00
2022-08-12T10:52:33.367Z,3.80
2022-08-12T10:54:50.903Z,3.90
2022-08-12T10:58:14.974Z,4.00
2022-08-12T11:00:35.980Z,3.70
2022-08-12T11:04:31.669Z,3.90
2022-08-12T11:07:05.911Z,3.40
2022-08-12T11:08:54.738Z,3.70
2022-08-12T11:12:35.968Z,3.90
2022-08-12T11:14:50.205Z,3.50
2022-08-12T11:17:43.806Z,4.60
2022-08-12T11:20:15.124Z,3.80
2022-08-12T11:22:59.148Z,4.50
2022-08-12T11:25:56.429Z,4.40
2022-08-12T11:28:34.602Z,4.30
2022-08-12T11:31:14.163Z,3.90
2022-08-12T11:34:05.425Z,3.10
2022-08-12T11:36:53.515Z,4.80
2022-08-12T11:42:17.946Z,3.60
2022-08-12T11:45:03.974Z,4.10
2022-08-12T11:47:40.253Z,4.40
2022-08-12T11:50:19.460Z,3.90
2022-08-12T11:52:56.048Z,4.10
2022-08-12T11:58:44.055Z,4.00
2022-08-12T12:03:48.277Z,4.60
2022-08-12T12:06:22.580Z,4.10
2022-08-12T12:08:54.848Z,4.50
2022-08-12T12:11:26.947Z,3.70
2022-08-12T12:14:18.738Z,3.90
2022-08-12T12:17:09.765Z,4.00
2022-08-12T12:19:46.340Z,3.30
2022-08-12T12:22:23.749Z,4.30
2022-08-12T12:25:13.779Z,4.30
2022-08-12T12:28:05.773Z,4.20
2022-08-12T12:33:17.708Z,3.90
2022-08-12T12:36:19.689Z,4.10
2022-08-12T12:38:41.825Z,3.70
2022-08-12T12:41:16.463Z,4.20
2022-08-12T12:44:04.261Z,3.80
2022-08-12T12:46:36.749Z,3.90
2022-08-12T12:49:10.900Z,4.10
2022-08-12T12:52:01.958Z,3.80
2022-08-12T12:54:35.057Z,4.00
2022-08-12T12:57:07.154Z,4.10
2022-08-12T13:00:00.326Z,3.80
2022-08-12T13:05:14.327Z,5.40
2022-08-12T13:07:48.942Z,4.00
2022-08-12T13:10:30.701Z,3.90
2022-08-12T13:14:07.631Z,3.90
2022-08-12T13:16:01.888Z,4.10
2022-08-12T13:18:37.340Z,4.50
2022-08-12T13:21:15.693Z,4.20
2022-08-12T13:24:09.706Z,4.00
2022-08-12T13:26:45.990Z,4.30
2022-08-12T13:29:18.672Z,4.10
2022-08-12T13:32:18.978Z,3.90
2022-08-12T13:34:42.814Z,4.30
2022-08-12T13:37:15.335Z,5.00
2022-08-12T13:39:47.428Z,4.10
2022-08-12T13:42:22.922Z,5.30
2022-08-12T13:44:54.680Z,4.60
2022-08-12T13:47:27.028Z,4.40
2022-08-12T13:50:00.437Z,4.30
2022-08-12T13:52:32.106Z,4.80
2022-08-12T13:55:06.352Z,4.20
2022-08-12T13:57:46.986Z,4.40
2022-08-12T14:00:19.484Z,4.30
2022-08-12T14:02:53.297Z,4.50
2022-08-12T14:05:31.110Z,4.50
2022-08-12T14:08:11.849Z,4.50
2022-08-12T14:10:52.024Z,4.40
2022-08-12T14:14:04.341Z,4.40
2022-08-12T14:16:32.341Z,4.70
2022-08-12T14:19:22.125Z,4.70
2022-08-12T14:22:01.505Z,4.60
2022-08-12T14:24:40.690Z,4.50
2022-08-12T14:27:38.139Z,5.60
2022-08-12T14:30:15.553Z,4.60
2022-08-12T14:32:48.799Z,4.70
2022-08-12T14:35:21.662Z,4.90
2022-08-12T14:37:59.084Z,4.60
2022-08-12T14:40:32.141Z,4.80
2022-08-12T14:43:06.245Z,4.80
2022-08-12T14:45:46.827Z,4.50
2022-08-12T14:48:24.524Z,4.40
2022-08-12T14:52:10.811Z,4.90
2022-08-12T14:55:10.878Z,5.30
2022-08-12T14:59:58.126Z,4.80
2022-08-12T15:02:30.801Z,5.00
2022-08-12T15:07:49.549Z,5.30
2022-08-12T15:10:31.354Z,4.70
2022-08-12T15:13:07.878Z,5.20
2022-08-12T15:15:44.243Z,5.30
2022-08-12T15:18:22.787Z,5.20
2022-08-12T15:21:00.143Z,5.20
2022-08-12T15:23:54.830Z,5.00
2022-08-12T15:26:35.742Z,5.20
2022-08-12T15:34:33.364Z,5.40
2022-08-12T15:37:05.655Z,5.40
2022-08-12T15:39:41.200Z,4.60
2022-08-12T15:42:34.209Z,4.80
2022-08-12T15:45:08.584Z,5.20
2022-08-12T15:47:49.928Z,5.00
2022-08-12T15:50:26.623Z,4.80
2022-08-12T15:53:14.687Z,4.70
2022-08-12T15:55:49.257Z,4.80
2022-08-12T15:58:27.393Z,5.00
2022-08-12T16:01:06.807Z,4.80
2022-08-12T16:03:45.498Z,4.40
2022-08-12T16:07:00.771Z,5.20
2022-08-12T16:09:55.933Z,5.00
2022-08-12T16:12:15.872Z,5.00
2022-08-12T16:14:55.018Z,5.20
2022-08-12T16:18:15.436Z,4.60
2022-08-12T16:20:22.168Z,4.70
2022-08-12T16:23:50.999Z,6.20
2022-08-12T16:26:06.258Z,5.10
2022-08-12T16:28:48.068Z,4.90
2022-08-12T16:31:23.166Z,5.20
2022-08-12T16:33:58.720Z,5.10
2022-08-12T16:36:32.916Z,5.20
2022-08-12T16:39:04.746Z,5.30
2022-08-12T16:41:39.747Z,5.70
2022-08-12T16:44:12.737Z,5.00
2022-08-12T16:46:57.953Z,5.00
2022-08-12T16:49:38.539Z,5.10
2022-08-12T16:52:16.421Z,5.30
2022-08-12T16:54:48.597Z,5.50
2022-08-12T16:57:34.677Z,5.30
2022-08-12T17:00:11.488Z,5.80
2022-08-12T17:02:54.817Z,6.70
2022-08-12T17:05:31.256Z,5.50
2022-08-12T17:08:03.510Z,5.50
2022-08-12T17:10:36.038Z,5.60
2022-08-12T17:13:10.796Z,6.00
2022-08-12T17:15:57.325Z,5.70
2022-08-12T17:18:44.189Z,5.60
2022-08-12T17:21:41.069Z,6.20
2022-08-12T17:24:30.580Z,5.60
2022-08-12T17:27:08.983Z,5.70
2022-08-12T17:30:00.944Z,5.70
2022-08-12T17:32:37.176Z,5.80
2022-08-12T17:35:37.445Z,7.40
2022-08-12T17:38:15.231Z,7.20
2022-08-12T17:40:49.551Z,6.20
2022-08-12T17:43:55.734Z,6.20
2022-08-12T17:46:24.163Z,6.30
2022-08-12T17:49:06.540Z,6.90
2022-08-12T17:52:02.751Z,6.20
2022-08-12T17:54:37.722Z,6.30
2022-08-12T17:57:16.050Z,6.90
2022-08-12T17:59:49.647Z,6.40
2022-08-12T18:02:30.847Z,15.70
2022-08-12T18:05:09.381Z,14.90
2022-08-12T18:07:44.007Z,7.00
2022-08-12T18:10:42.899Z,7.70
2022-08-12T18:13:40.898Z,8.00
2022-08-12T18:16:12.651Z,7.30
2022-08-12T18:18:44.745Z,6.90
2022-08-12T18:21:20.643Z,7.10
2022-08-12T18:23:54.593Z,7.00
2022-08-12T18:26:27.532Z,6.50
2022-08-12T18:28:59.760Z,7.40
2022-08-12T18:31:44.721Z,8.30
2022-08-12T18:34:27.905Z,7.50
2022-08-12T18:37:26.621Z,7.00
2022-08-12T18:40:11.847Z,7.00
2022-08-12T18:42:54.397Z,7.20
2022-08-12T18:45:31.610Z,7.30
2022-08-12T18:48:21.022Z,7.20
2022-08-12T18:51:06.372Z,8.00
2022-08-12T18:54:06.368Z,7.10
2022-08-12T18:56:36.907Z,8.00
2022-08-12T18:59:10.372Z,7.90
2022-08-12T19:02:19.277Z,7.20
2022-08-12T19:04:38.060Z,7.60
2022-08-12T19:07:20.071Z,8.10
2022-08-12T19:09:57.836Z,7.40
2022-08-12T19:12:57.550Z,8.80
2022-08-12T19:15:31.698Z,8.10
2022-08-12T19:18:13.410Z,7.90
2022-08-12T19:20:48.045Z,8.70
2022-08-12T19:23:22.332Z,8.00
2022-08-12T19:26:00.079Z,8.00
2022-08-12T19:28:36.515Z,8.30
2022-08-12T19:31:56.565Z,8.40
2022-08-12T19:38:04.465Z,8.10
2022-08-12T19:40:31.496Z,8.90
2022-08-12T19:43:18.950Z,9.30
2022-08-12T19:45:56.619Z,8.30
2022-08-12T19:48:30.477Z,8.00
2022-08-12T19:51:09.225Z,8.40
2022-08-12T19:53:57.816Z,7.90
2022-08-12T19:56:32.375Z,8.60
2022-08-12T19:59:21.612Z,8.70
2022-08-12T20:02:02.456Z,7.70
2022-08-12T20:04:38.421Z,8.40
2022-08-12T20:07:24.280Z,7.70
2022-08-12T20:09:59.093Z,9.30
2022-08-12T20:12:32.894Z,9.00
2022-08-12T20:15:10.189Z,9.80
2022-08-12T20:17:50.845Z,9.30
2022-08-12T20:20:27.817Z,8.50
2022-08-12T20:23:00.603Z,9.00
2022-08-12T20:25:52.853Z,9.00
2022-08-12T20:28:29.725Z,9.00
2022-08-12T20:31:03.529Z,9.60
2022-08-12T20:36:40.642Z,9.00
2022-08-12T20:39:37.338Z,9.30
2022-08-12T20:42:09.690Z,9.10
2022-08-12T20:44:42.553Z,9.50
2022-08-12T20:47:19.609Z,9.20
2022-08-12T20:49:55.874Z,9.50
2022-08-12T20:52:35.004Z,9.70
2022-08-12T20:55:15.549Z,10.70
2022-08-12T20:58:02.715Z,9.50
2022-08-12T21:00:36.824Z,9.50
2022-08-12T21:03:28.236Z,9.60
2022-08-12T21:06:21.311Z,10.40
2022-08-12T21:09:00.080Z,9.50
2022-08-12T21:11:32.709Z,9.90
2022-08-12T21:14:06.028Z,9.90
2022-08-12T21:16:45.022Z,10.50
2022-08-12T21:19:51.814Z,10.20
2022-08-12T21:22:24.688Z,10.10
2022-08-12T21:24:56.753Z,10.50
2022-08-12T21:27:58.933Z,10.60
2022-08-12T21:30:23.433Z,11.50
2022-08-12T21:33:10.659Z,10.50
2022-08-12T21:35:50.530Z,10.90
2022-08-12T21:38:24.757Z,13.20
2022-08-12T21:41:06.812Z,11.90
2022-08-12T21:43:44.785Z,11.70
2022-08-12T21:46:34.669Z,11.60
2022-08-12T21:49:09.475Z,11.20
2022-08-12T21:51:49.360Z,10.40
2022-08-12T21:54:24.140Z,12.00
2022-08-12T21:56:59.757Z,10.70
2022-08-12T21:59:31.401Z,11.20
2022-08-12T22:02:03.158Z,11.70
2022-08-12T22:04:58.490Z,11.50
2022-08-12T22:07:30.295Z,12.00
2022-08-12T22:10:20.642Z,12.80
2022-08-12T22:13:01.274Z,11.50
2022-08-12T22:15:32.899Z,12.40
2022-08-12T22:18:07.417Z,13.00
2022-08-12T22:20:41.126Z,12.00
2022-08-12T22:23:21.719Z,12.80
2022-08-12T22:26:00.341Z,13.60
2022-08-12T22:28:49.689Z,12.20
2022-08-12T22:31:22.201Z,12.50
2022-08-12T22:33:59.579Z,12.60
2022-08-12T22:36:31.950Z,11.90
2022-08-12T22:39:11.671Z,11.80
2022-08-12T22:44:54.707Z,11.80
2022-08-12T22:47:54.554Z,11.40
2022-08-12T22:50:29.461Z,16.70
2022-08-12T22:53:16.452Z,12.50
2022-08-12T22:56:00.522Z,13.00
2022-08-12T22:58:41.649Z,12.50
2022-08-12T23:01:21.223Z,12.10
2022-08-12T23:04:15.405Z,11.80
2022-08-12T23:07:05.520Z,12.50
2022-08-12T23:09:48.371Z,12.20
2022-08-12T23:12:35.040Z,11.80
2022-08-12T23:15:13.241Z,12.50
2022-08-12T23:17:45.821Z,11.60
2022-08-12T23:20:18.317Z,12.20
2022-08-12T23:23:03.156Z,12.20
2022-08-12T23:25:54.422Z,11.60
2022-08-12T23:28:45.027Z,12.10
2022-08-12T23:31:30.373Z,11.10
2022-08-12T23:34:18.191Z,10.50
2022-08-12T23:36:51.509Z,11.00
2022-08-12T23:40:13.976Z,10.90
2022-08-12T23:42:17.610Z,11.00
2022-08-12T23:44:53.311Z,10.70
2022-08-12T23:47:24.979Z,11.10
2022-08-12T23:50:03.170Z,11.30
2022-08-12T23:52:41.485Z,11.50
2022-08-12T23:55:25.150Z,11.60
2022-08-12T23:58:22.582Z,11.20
